Time;durP1;ratioP1;P1;durP2;ratioP2;P2;SDS_P1;SDS_P2;PMS_P1;PMS_P2;Temp;Humidity;BMP_temperature;BMP_pressure;BME280_temperature;BME280_humidity;BME280_pressure;Samples;Min_cycle;Max_cycle;Signal;HPM_P1;HPM_P2
2020/12/25 00:02:13;;;;;;;1.73;1.63;;;;;;;2.36;80.10;96361.56;5105269;28;20677;-68
2020/12/25 00:04:39;;;;;;;1.70;1.60;;;;;;;2.58;79.62;96365.84;5100443;28;20214;-67
2020/12/25 00:07:05;;;;;;;1.93;1.83;;;;;;;2.53;80.20;96362.78;5108086;28;20595;-68
2020/12/25 00:09:31;;;;;;;2.33;2.23;;;;;;;2.36;79.98;96362.38;5095259;28;20435;-68
2020/12/25 00:11:57;;;;;;;2.07;1.97;;;;;;;2.28;80.86;96359.56;5107729;28;20422;-68
2020/12/25 00:14:23;;;;;;;2.50;2.30;;;;;;;2.73;79.43;96369.78;5102222;28;20946;-68
2020/12/25 00:16:49;;;;;;;2.20;2.10;;;;;;;2.06;81.28;96357.84;5100017;28;20447;-68
2020/12/25 00:19:15;;;;;;;2.53;2.40;;;;;;;2.44;79.69;96359.19;5105065;28;20203;-68
2020/12/25 00:21:41;;;;;;;2.33;2.20;;;;;;;2.34;80.40;96361.66;5103227;28;20546;-67
2020/12/25 00:24:08;;;;;;;2.07;1.97;;;;;;;2.29;80.33;96366.41;5108481;28;20490;-71
2020/12/25 00:26:34;;;;;;;1.83;1.73;;;;;;;2.31;80.41;96364.50;5101700;28;20551;-68
2020/12/25 00:29:02;;;;;;;1.87;1.77;;;;;;;2.12;80.22;96367.72;5099372;28;20436;-67
2020/12/25 00:31:29;;;;;;;2.07;1.97;;;;;;;2.03;80.83;96368.41;5067972;28;20430;-68
2020/12/25 00:33:57;;;;;;;1.90;1.80;;;;;;;2.23;80.54;96372.88;5096148;28;20423;-67
2020/12/25 00:36:33;;;;;;;2.17;2.07;;;;;;;2.22;80.45;96381.56;5104420;28;20423;-68
2020/12/25 00:39:00;;;;;;;3.10;1.80;;;;;;;1.86;80.89;96375.75;5106167;28;20521;-67
2020/12/25 00:41:27;;;;;;;2.30;2.20;;;;;;;2.11;80.53;96373.84;5102947;28;20419;-67
2020/12/25 00:43:53;;;;;;;1.87;1.70;;;;;;;2.00;81.32;96379.81;5101928;28;20444;-67
2020/12/25 00:46:20;;;;;;;1.83;1.73;;;;;;;1.93;80.95;96370.91;5105917;28;20426;-67
2020/12/25 00:48:46;;;;;;;1.90;1.80;;;;;;;2.08;80.71;96376.66;5104473;28;20514;-67
2020/12/25 00:51:19;;;;;;;1.60;1.50;;;;;;;2.15;80.82;96375.22;5107817;28;20522;-67
2020/12/25 00:53:45;;;;;;;1.90;1.80;;;;;;;2.24;80.83;96379.69;5107178;28;20234;-67
2020/12/25 00:56:12;;;;;;;1.57;1.47;;;;;;;2.39;80.14;96382.00;5110060;28;20426;-68
2020/12/25 00:58:38;;;;;;;1.70;1.60;;;;;;;2.18;80.88;96385.31;5103174;28;20465;-67
2020/12/25 01:01:05;;;;;;;1.50;1.40;;;;;;;2.40;79.72;96394.81;5089256;28;20427;-66
2020/12/25 01:03:32;;;;;;;1.70;1.60;;;;;;;2.37;79.64;96391.66;5087848;28;20426;-67
2020/12/25 01:05:58;;;;;;;2.00;1.73;;;;;;;2.40;80.23;96394.81;5082883;28;20458;-67
2020/12/25 01:08:24;;;;;;;1.67;1.57;;;;;;;2.32;80.06;96396.34;5088227;28;20480;-67
2020/12/25 01:10:49;;;;;;;1.77;1.67;;;;;;;2.32;80.39;96404.13;5102416;28;20569;-67
2020/12/25 01:13:16;;;;;;;1.80;1.70;;;;;;;2.50;79.44;96400.09;5107064;28;20739;-67
2020/12/25 01:15:41;;;;;;;3.60;2.10;;;;;;;2.72;78.19;96416.47;5098918;28;20188;-67
2020/12/25 01:18:07;;;;;;;1.80;1.70;;;;;;;2.42;78.85;96413.63;5096334;28;20545;-66
2020/12/25 01:20:35;;;;;;;2.17;1.70;;;;;;;2.67;78.87;96410.84;5112911;28;20268;-67
2020/12/25 01:23:01;;;;;;;2.27;2.00;;;;;;;2.95;77.65;96413.81;5111049;28;20450;-66
2020/12/25 01:25:27;;;;;;;2.07;1.87;;;;;;;2.66;78.22;96427.31;5111850;28;20423;-67
2020/12/25 01:27:53;;;;;;;2.33;2.07;;;;;;;3.08;77.10;96430.00;5106365;28;20781;-67
2020/12/25 01:30:19;;;;;;;2.10;2.00;;;;;;;3.09;77.40;96434.22;5107689;28;20212;-67
2020/12/25 01:32:44;;;;;;;1.83;1.73;;;;;;;3.02;77.71;96430.50;5093749;28;20319;-68
2020/12/25 01:35:10;;;;;;;2.07;1.90;;;;;;;2.88;77.52;96432.44;5110949;28;20191;-67
2020/12/25 01:37:36;;;;;;;2.33;2.17;;;;;;;2.73;78.16;96436.25;5111883;27;20519;-67
2020/12/25 01:40:03;;;;;;;2.33;2.13;;;;;;;2.69;79.11;96442.59;5107971;28;20197;-68
2020/12/25 01:42:29;;;;;;;2.77;2.57;;;;;;;2.78;78.52;96444.44;5112126;28;20280;-68
2020/12/25 01:44:55;;;;;;;2.53;2.33;;;;;;;2.69;77.99;96440.84;5115034;28;20426;-67
2020/12/25 01:47:20;;;;;;;2.90;2.60;;;;;;;2.74;78.63;96449.03;5109188;28;20189;-66
2020/12/25 01:49:47;;;;;;;3.23;2.83;;;;;;;2.73;78.95;96456.94;5115222;28;20208;-67
2020/12/25 01:52:13;;;;;;;3.80;3.50;;;;;;;2.45;80.33;96448.75;5095299;28;20235;-67
2020/12/25 01:54:43;;;;;;;3.80;3.50;;;;;;;2.52;80.18;96449.91;5116566;28;20422;-66
2020/12/25 01:57:12;;;;;;;4.87;4.37;;;;;;;2.41;80.90;96465.44;5115439;28;20446;-66
2020/12/25 01:59:38;;;;;;;5.13;3.83;;;;;;;2.57;80.18;96458.16;5109097;28;20433;-67
2020/12/25 02:02:03;;;;;;;6.60;4.40;;;;;;;2.40;80.51;96462.06;5096175;28;20423;-67
2020/12/25 02:04:29;;;;;;;6.13;4.20;;;;;;;2.78;80.27;96461.75;5087545;28;20268;-67
2020/12/25 02:06:55;;;;;;;5.30;4.80;;;;;;;2.55;80.30;96460.03;5113237;28;20180;-67
2020/12/25 02:09:20;;;;;;;6.00;4.80;;;;;;;2.52;80.73;96465.44;5100699;28;20217;-67
2020/12/25 02:11:47;;;;;;;6.53;4.90;;;;;;;2.66;80.07;96474.72;5112796;28;20265;-67
2020/12/25 02:14:12;;;;;;;6.40;4.90;;;;;;;2.54;80.59;96473.91;5111438;28;20256;-67
2020/12/25 02:16:38;;;;;;;4.43;4.00;;;;;;;2.66;80.64;96471.28;5104839;28;20429;-67
2020/12/25 02:19:04;;;;;;;5.50;4.70;;;;;;;2.57;80.99;96472.88;5114251;28;20212;-67
2020/12/25 02:21:29;;;;;;;5.80;5.20;;;;;;;2.43;81.07;96481.69;5108233;28;20676;-67
2020/12/25 02:23:55;;;;;;;6.40;5.63;;;;;;;2.47;81.26;96488.28;5094348;28;20630;-66
2020/12/25 02:26:21;;;;;;;5.73;5.10;;;;;;;2.36;81.61;96480.53;5074827;28;20723;-67
2020/12/25 02:28:46;;;;;;;7.43;5.60;;;;;;;2.48;81.32;96491.66;5081820;28;20255;-66
2020/12/25 02:31:12;;;;;;;10.10;4.90;;;;;;;2.72;81.02;96483.75;5105741;28;20181;-68
2020/12/25 02:33:38;;;;;;;8.97;5.57;;;;;;;2.38;81.29;96482.03;5107418;28;20216;-67
2020/12/25 02:36:03;;;;;;;6.40;5.07;;;;;;;2.55;81.60;96485.09;5087474;28;20181;-66
2020/12/25 02:38:29;;;;;;;7.23;5.63;;;;;;;2.63;81.24;96477.53;5110091;28;20346;-66
2020/12/25 02:40:54;;;;;;;12.00;6.17;;;;;;;2.66;81.09;96472.13;5105091;28;20185;-67
2020/12/25 02:43:20;;;;;;;8.50;5.53;;;;;;;2.48;81.28;96486.50;5095137;28;20176;-68
2020/12/25 02:45:46;;;;;;;6.97;5.80;;;;;;;2.60;81.16;96494.13;5100676;28;20176;-68
2020/12/25 02:48:11;;;;;;;8.10;6.40;;;;;;;2.84;80.39;96490.56;5093909;28;20707;-66
2020/12/25 02:50:37;;;;;;;8.80;6.40;;;;;;;2.71;80.32;96488.09;5101728;28;20534;-66
2020/12/25 02:53:03;;;;;;;9.10;6.20;;;;;;;2.72;80.70;96491.53;5099296;28;20185;-67
2020/12/25 02:55:28;;;;;;;7.83;6.50;;;;;;;2.90;80.09;96502.19;5088343;28;20245;-68
2020/12/25 02:57:54;;;;;;;11.73;6.00;;;;;;;2.83;79.88;96501.84;5077923;28;20703;-68
2020/12/25 03:00:20;;;;;;;10.63;7.30;;;;;;;2.81;80.27;96505.50;5094602;28;20645;-68
2020/12/25 03:02:45;;;;;;;8.37;5.93;;;;;;;2.77;80.58;96510.13;5078197;28;20584;-67
2020/12/25 03:05:11;;;;;;;6.20;5.60;;;;;;;2.65;80.75;96516.25;5076976;28;20227;-69
2020/12/25 03:07:36;;;;;;;7.13;5.33;;;;;;;2.66;80.68;96513.53;5100535;28;20177;-67
2020/12/25 03:10:03;;;;;;;8.07;6.13;;;;;;;2.87;80.39;96513.63;5076174;28;20202;-67
2020/12/25 03:12:28;;;;;;;8.30;6.90;;;;;;;2.85;80.10;96515.50;5096750;28;20668;-68
2020/12/25 03:14:54;;;;;;;10.27;5.80;;;;;;;2.87;80.38;96516.22;5095034;28;20499;-69
2020/12/25 03:17:20;;;;;;;8.10;6.40;;;;;;;2.98;79.44;96522.28;5085410;28;20206;-68
2020/12/25 03:19:45;;;;;;;10.90;6.50;;;;;;;2.94;79.78;96528.66;5089492;28;20197;-67
2020/12/25 03:22:11;;;;;;;6.83;6.00;;;;;;;3.07;79.59;96522.41;5091327;28;20236;-68
2020/12/25 03:24:36;;;;;;;7.50;6.43;;;;;;;2.90;79.70;96526.28;5100909;28;20648;-68
2020/12/25 03:27:02;;;;;;;6.73;5.83;;;;;;;2.96;79.56;96531.94;5095138;28;20334;-68
2020/12/25 03:29:28;;;;;;;9.30;6.83;;;;;;;2.81;79.83;96536.56;5101868;28;20256;-68
2020/12/25 03:31:54;;;;;;;10.90;6.70;;;;;;;2.96;79.12;96530.16;5102183;28;20683;-67
2020/12/25 03:34:19;;;;;;;6.97;6.27;;;;;;;2.98;79.33;96538.63;5107962;28;20858;-67
2020/12/25 03:36:45;;;;;;;7.33;6.57;;;;;;;2.93;79.29;96535.59;5103186;28;20283;-68
2020/12/25 03:39:11;;;;;;;9.90;7.33;;;;;;;3.40;77.43;96537.94;5107981;27;20247;-67
2020/12/25 03:41:37;;;;;;;9.50;7.20;;;;;;;3.09;78.87;96532.63;5105772;28;20264;-67
2020/12/25 03:44:03;;;;;;;10.60;7.37;;;;;;;3.17;78.52;96538.00;5108610;28;20422;-67
2020/12/25 03:46:33;;;;;;;8.50;7.30;;;;;;;3.42;77.59;96536.03;5106587;28;20188;-68
2020/12/25 03:48:59;;;;;;;9.27;7.40;;;;;;;3.20;77.94;96535.19;5104918;28;20209;-68
2020/12/25 03:51:24;;;;;;;9.10;7.03;;;;;;;3.32;77.86;96530.78;5108480;28;20427;-67
2020/12/25 03:53:50;;;;;;;10.17;7.17;;;;;;;3.35;77.58;96540.06;5100254;28;20186;-68
2020/12/25 03:56:16;;;;;;;8.13;7.20;;;;;;;3.11;77.77;96545.44;5089645;28;20177;-68
2020/12/25 03:58:41;;;;;;;11.10;6.33;;;;;;;3.09;78.18;96558.50;5108300;28;20325;-67
2020/12/25 04:01:07;;;;;;;8.40;6.80;;;;;;;3.50;77.38;96553.56;5105458;28;20209;-68
2020/12/25 04:03:33;;;;;;;7.00;5.70;;;;;;;3.17;78.58;96552.72;5104622;28;20185;-67
2020/12/25 04:05:58;;;;;;;7.67;6.00;;;;;;;3.06;78.14;96561.34;5110952;28;20188;-67
2020/12/25 04:08:24;;;;;;;6.70;5.90;;;;;;;3.25;77.66;96559.91;5104922;28;20255;-67
2020/12/25 04:10:50;;;;;;;7.50;5.87;;;;;;;3.46;77.17;96568.53;5106047;28;20181;-68
2020/12/25 04:13:16;;;;;;;10.67;6.10;;;;;;;3.31;77.44;96567.16;5082431;28;20764;-67
2020/12/25 04:15:41;;;;;;;6.10;5.47;;;;;;;3.05;78.89;96564.88;5103625;28;20277;-68
2020/12/25 04:18:07;;;;;;;6.80;5.60;;;;;;;3.01;78.04;96568.66;5085811;28;20566;-67
2020/12/25 04:20:33;;;;;;;8.03;5.80;;;;;;;3.14;78.39;96568.50;5068660;28;20266;-67
2020/12/25 04:22:58;;;;;;;7.40;5.77;;;;;;;3.16;77.25;96567.44;5087965;28;20213;-68
2020/12/25 04:25:24;;;;;;;6.53;5.70;;;;;;;3.17;77.77;96563.91;5088207;28;20180;-67
2020/12/25 04:27:50;;;;;;;6.30;5.43;;;;;;;3.01;78.59;96576.44;5089026;28;20173;-67
2020/12/25 04:30:15;;;;;;;6.30;5.70;;;;;;;3.18;77.68;96570.72;5073900;28;20279;-68
2020/12/25 04:32:41;;;;;;;6.60;5.80;;;;;;;3.10;77.97;96577.44;5111129;28;20177;-68
2020/12/25 04:35:07;;;;;;;7.07;5.17;;;;;;;2.87;79.22;96577.50;5097728;28;20172;-68
2020/12/25 04:37:33;;;;;;;5.20;4.70;;;;;;;2.92;78.99;96588.31;5094023;28;20292;-68
2020/12/25 04:39:58;;;;;;;6.90;5.47;;;;;;;2.92;78.84;96590.91;5095369;28;20201;-68
2020/12/25 04:42:27;;;;;;;5.90;5.30;;;;;;;3.10;77.75;96595.56;5105591;28;20241;-68
2020/12/25 04:44:54;;;;;;;5.90;5.30;;;;;;;2.96;78.70;96594.06;5087178;28;20192;-69
2020/12/25 04:47:19;;;;;;;6.10;5.50;;;;;;;2.85;79.27;96593.16;5098918;28;20450;-69
2020/12/25 04:49:45;;;;;;;6.37;5.77;;;;;;;2.86;79.49;96599.13;5074542;28;20504;-67
2020/12/25 04:52:11;;;;;;;7.47;5.87;;;;;;;2.95;78.94;96593.25;5088149;28;20254;-67
2020/12/25 04:54:37;;;;;;;6.73;5.23;;;;;;;2.98;78.80;96599.97;5096544;28;20180;-67
2020/12/25 04:57:03;;;;;;;5.43;4.93;;;;;;;2.87;79.66;96595.59;5101132;28;20206;-67
2020/12/25 04:59:30;;;;;;;7.03;5.57;;;;;;;2.92;78.96;96596.09;5087218;28;20399;-66
2020/12/25 05:01:56;;;;;;;6.70;5.50;;;;;;;2.74;79.92;96600.91;5089035;28;20811;-66
2020/12/25 05:04:23;;;;;;;7.40;6.60;;;;;;;2.94;79.52;96604.56;5108279;28;20967;-69
2020/12/25 05:06:53;;;;;;;7.33;6.10;;;;;;;2.87;79.05;96609.38;5107059;28;20426;-66
2020/12/25 05:09:25;;;;;;;6.40;5.73;;;;;;;2.95;79.00;96610.56;5084826;28;20450;-67
2020/12/25 05:11:58;;;;;;;6.03;5.40;;;;;;;2.96;78.84;96612.19;5104020;28;20580;-66
2020/12/25 05:14:28;;;;;;;6.47;5.33;;;;;;;3.01;78.99;96617.84;5108220;28;20456;-66
2020/12/25 05:16:58;;;;;;;6.70;5.70;;;;;;;2.81;78.96;96621.97;5083584;28;20545;-67
2020/12/25 05:19:31;;;;;;;5.77;5.17;;;;;;;2.77;79.45;96634.34;5099272;28;21014;-67
2020/12/25 05:21:58;;;;;;;7.10;5.57;;;;;;;2.88;79.66;96626.56;5105420;28;20427;-68
2020/12/25 05:24:25;;;;;;;8.07;6.73;;;;;;;2.79;79.76;96622.06;5103610;28;20814;-67
2020/12/25 05:26:55;;;;;;;6.67;5.97;;;;;;;2.69;80.13;96634.09;5088414;28;20446;-67
2020/12/25 05:29:22;;;;;;;7.63;6.17;;;;;;;2.67;80.56;96635.97;5104524;28;20479;-67
2020/12/25 05:31:49;;;;;;;7.73;6.10;;;;;;;2.79;79.85;96632.44;5107314;28;20913;-68
2020/12/25 05:34:17;;;;;;;8.50;6.63;;;;;;;2.78;79.32;96632.56;5083878;28;20527;-67
2020/12/25 05:36:53;;;;;;;6.50;5.80;;;;;;;2.90;79.68;96637.59;5108600;28;20955;-67
2020/12/25 05:39:33;;;;;;;7.27;5.87;;;;;;;2.73;79.73;96638.09;5099821;28;20451;-67
2020/12/25 05:42:04;;;;;;;7.73;5.80;;;;;;;2.85;79.29;96638.91;5109315;28;20480;-67
2020/12/25 05:44:35;;;;;;;7.30;6.60;;;;;;;2.86;79.59;96654.34;5097643;28;20581;-68
2020/12/25 05:47:01;;;;;;;6.27;5.53;;;;;;;2.98;79.08;96647.38;5089555;28;20486;-68
2020/12/25 05:49:28;;;;;;;7.67;6.30;;;;;;;2.87;79.46;96650.81;5052545;28;20438;-67
2020/12/25 05:51:54;;;;;;;6.50;5.83;;;;;;;2.67;79.25;96654.06;5092277;28;20301;-66
2020/12/25 05:54:25;;;;;;;7.50;6.20;;;;;;;2.53;80.39;96648.16;5093536;28;20506;-66
2020/12/25 05:56:57;;;;;;;9.13;7.53;;;;;;;2.78;79.63;96656.66;5097159;28;20448;-66
2020/12/25 05:59:31;;;;;;;8.53;6.97;;;;;;;2.73;80.02;96659.59;5073937;28;20869;-68
2020/12/25 06:02:02;;;;;;;8.73;7.00;;;;;;;2.74;80.14;96655.28;5094159;28;20500;-67
2020/12/25 06:04:29;;;;;;;10.07;7.73;;;;;;;2.54;80.00;96647.25;5100883;28;20420;-67
2020/12/25 06:06:56;;;;;;;9.87;7.57;;;;;;;2.78;80.00;96656.66;5101395;28;20413;-68
2020/12/25 06:09:33;;;;;;;9.97;7.80;;;;;;;2.63;80.19;96660.44;5105309;28;20785;-67
2020/12/25 06:12:03;;;;;;;11.80;8.83;;;;;;;2.72;80.03;96670.91;5097854;28;20428;-67
2020/12/25 06:14:28;;;;;;;11.53;9.00;;;;;;;2.91;79.89;96657.38;5094689;28;20447;-67
2020/12/25 06:17:12;;;;;;;12.60;9.90;;;;;;;2.69;80.42;96667.72;5095395;28;20949;-69
2020/12/25 06:19:50;;;;;;;11.87;9.67;;;;;;;2.73;80.38;96666.56;5095197;28;20228;-68
2020/12/25 06:22:21;;;;;;;15.63;9.13;;;;;;;2.88;79.38;96675.75;5100002;28;20446;-69
2020/12/25 06:24:48;;;;;;;14.07;10.30;;;;;;;2.91;79.09;96672.91;5099100;28;20436;-67
2020/12/25 06:27:15;;;;;;;13.23;9.57;;;;;;;2.84;79.97;96678.66;5086895;28;20422;-67
2020/12/25 06:29:44;;;;;;;14.87;10.10;;;;;;;2.81;79.81;96677.16;5103726;28;20443;-67
2020/12/25 06:32:12;;;;;;;15.13;9.80;;;;;;;2.71;80.04;96668.44;5080967;28;20766;-68
2020/12/25 06:34:49;;;;;;;15.47;11.50;;;;;;;2.82;79.75;96683.16;5105695;28;20522;-68
2020/12/25 06:37:16;;;;;;;12.73;9.83;;;;;;;2.79;79.80;96679.03;5093163;28;20454;-68
2020/12/25 06:39:51;;;;;;;14.87;10.33;;;;;;;2.95;79.57;96677.84;5108703;28;20443;-67
2020/12/25 06:42:32;;;;;;;13.20;9.30;;;;;;;2.78;79.66;96690.31;5099858;28;20460;-67
2020/12/25 06:44:59;;;;;;;13.50;9.60;;;;;;;2.98;79.11;96693.97;5089269;28;20972;-68
2020/12/25 06:47:36;;;;;;;14.30;10.20;;;;;;;2.88;79.07;96699.06;5104681;28;20480;-68
2020/12/25 06:50:15;;;;;;;11.77;9.10;;;;;;;3.09;78.65;96700.94;5071056;28;20511;-68
2020/12/25 06:52:51;;;;;;;12.63;9.63;;;;;;;2.81;79.96;96700.44;5104330;28;20417;-67
2020/12/25 06:55:20;;;;;;;13.63;9.70;;;;;;;2.96;79.76;96708.78;5097094;28;20477;-67
2020/12/25 06:57:45;;;;;;;11.57;9.00;;;;;;;3.02;79.10;96705.75;5098216;28;20504;-67
2020/12/25 07:00:11;;;;;;;10.67;8.23;;;;;;;2.93;78.88;96716.81;5109574;28;20597;-67
2020/12/25 07:02:41;;;;;;;11.13;8.50;;;;;;;2.79;79.71;96715.25;5089231;28;20192;-67
2020/12/25 07:05:07;;;;;;;10.40;8.20;;;;;;;2.90;78.96;96728.22;5090994;28;20177;-67
2020/12/25 07:07:33;;;;;;;9.13;7.60;;;;;;;2.96;78.59;96726.09;5084233;28;20419;-67
2020/12/25 07:10:16;;;;;;;10.63;8.20;;;;;;;2.50;79.98;96720.88;5112619;28;20458;-68
2020/12/25 07:12:42;;;;;;;10.50;7.43;;;;;;;2.56;80.57;96730.75;5105433;28;20189;-67
2020/12/25 07:15:08;;;;;;;8.53;7.37;;;;;;;2.65;80.03;96733.59;5088916;28;20422;-67
2020/12/25 07:17:34;;;;;;;9.70;7.00;;;;;;;2.85;79.48;96735.50;5083852;28;20271;-67
2020/12/25 07:20:00;;;;;;;8.40;6.53;;;;;;;2.86;79.02;96737.16;5109428;28;20279;-67
2020/12/25 07:22:26;;;;;;;9.97;7.67;;;;;;;2.83;79.19;96736.56;5102651;28;20518;-67
2020/12/25 07:24:51;;;;;;;8.97;7.27;;;;;;;2.66;80.00;96749.00;5091801;28;21416;-67
2020/12/25 07:27:17;;;;;;;10.70;7.70;;;;;;;2.72;79.52;96751.13;5085290;28;20169;-67
2020/12/25 07:29:44;;;;;;;9.80;7.93;;;;;;;2.51;79.95;96761.31;5106528;28;20741;-68
2020/12/25 07:32:11;;;;;;;9.17;7.43;;;;;;;2.83;78.90;96758.09;5091903;28;20181;-67
2020/12/25 07:34:38;;;;;;;9.00;7.60;;;;;;;2.71;79.54;96753.84;5105832;28;20419;-67
2020/12/25 07:37:04;;;;;;;7.73;6.93;;;;;;;2.20;80.80;96758.38;5108039;28;21803;-67
2020/12/25 07:39:30;;;;;;;9.43;7.30;;;;;;;2.63;80.47;96761.34;5105549;28;20470;-67
2020/12/25 07:41:56;;;;;;;8.57;7.40;;;;;;;2.46;80.47;96755.66;5111519;28;20457;-67
2020/12/25 07:44:23;;;;;;;8.43;7.30;;;;;;;2.43;80.84;96761.88;5091975;28;20428;-67
2020/12/25 07:46:49;;;;;;;8.77;7.40;;;;;;;2.60;80.48;96762.38;5085050;28;20808;-67
2020/12/25 07:49:15;;;;;;;11.00;8.33;;;;;;;2.41;81.21;96765.50;5113801;28;20872;-68
2020/12/25 07:51:41;;;;;;;8.50;6.83;;;;;;;2.45;81.03;96769.50;5102928;28;20427;-68
2020/12/25 07:54:08;;;;;;;10.73;7.33;;;;;;;2.30;81.05;96776.63;5105732;28;20430;-67
2020/12/25 07:56:35;;;;;;;8.80;7.13;;;;;;;2.54;80.25;96779.19;5103297;28;20427;-71
2020/12/25 07:59:03;;;;;;;8.97;7.20;;;;;;;2.51;80.07;96776.84;5075402;28;20941;-70
2020/12/25 08:01:30;;;;;;;8.00;6.20;;;;;;;2.47;80.70;96778.00;5104784;28;20412;-68
2020/12/25 08:04:03;;;;;;;7.17;6.43;;;;;;;2.41;80.45;96788.78;5101838;28;20513;-68
2020/12/25 08:06:30;;;;;;;8.53;6.80;;;;;;;2.44;80.94;96788.56;5091919;28;20419;-70
2020/12/25 08:09:03;;;;;;;8.70;7.67;;;;;;;2.50;80.54;96788.13;5066319;28;20917;-69
2020/12/25 08:11:30;;;;;;;8.90;7.27;;;;;;;2.61;80.08;96795.94;5087696;28;20469;-71
2020/12/25 08:14:00;;;;;;;8.37;7.23;;;;;;;2.72;79.51;96791.72;5109169;28;20416;-70
2020/12/25 08:16:26;;;;;;;8.70;7.07;;;;;;;2.86;79.00;96794.09;5067399;28;20961;-66
2020/12/25 08:18:52;;;;;;;7.20;6.07;;;;;;;2.73;79.53;96803.72;5084001;28;20460;-70
2020/12/25 08:21:18;;;;;;;8.00;6.30;;;;;;;2.68;79.73;96800.63;5088715;28;20419;-66
2020/12/25 08:23:44;;;;;;;9.40;7.10;;;;;;;2.70;80.30;96803.94;5103883;28;20597;-67
2020/12/25 08:26:10;;;;;;;8.00;6.80;;;;;;;2.49;80.33;96799.41;5101816;28;20432;-67
2020/12/25 08:28:36;;;;;;;11.53;7.90;;;;;;;2.54;80.53;96809.41;5087622;28;20563;-67
2020/12/25 08:31:18;;;;;;;12.80;8.73;;;;;;;2.32;81.10;96813.56;5084423;28;20919;-66
2020/12/25 08:33:54;;;;;;;12.57;9.30;;;;;;;2.43;80.64;96808.44;5071839;28;20263;-68
2020/12/25 08:36:20;;;;;;;14.30;9.60;;;;;;;2.43;80.81;96818.78;5088796;28;20468;-67
2020/12/25 08:38:46;;;;;;;15.23;10.73;;;;;;;2.54;80.95;96810.22;5108619;28;20455;-67
2020/12/25 08:41:11;;;;;;;19.83;10.97;;;;;;;2.60;80.12;96809.78;5091179;28;20414;-67
2020/12/25 08:43:37;;;;;;;20.60;12.27;;;;;;;2.56;80.54;96810.94;5111565;28;20487;-67
2020/12/25 08:46:04;;;;;;;20.97;11.47;;;;;;;2.73;80.59;96814.06;5102077;28;20277;-67
2020/12/25 08:48:30;;;;;;;20.13;12.47;;;;;;;2.74;80.43;96813.13;5085222;28;20778;-67
2020/12/25 08:51:13;;;;;;;18.70;12.70;;;;;;;2.89;79.98;96818.94;5102179;28;20782;-67
2020/12/25 08:53:39;;;;;;;21.17;13.10;;;;;;;2.71;80.51;96823.72;5083536;28;20733;-68
2020/12/25 08:56:16;;;;;;;21.43;12.23;;;;;;;3.08;78.61;96823.56;5102185;28;20419;-67
2020/12/25 08:58:54;;;;;;;27.37;12.73;;;;;;;3.21;79.29;96823.50;5106586;28;20465;-68
2020/12/25 09:01:21;;;;;;;21.50;13.13;;;;;;;3.19;78.53;96831.34;5097495;28;20434;-67
2020/12/25 09:03:46;;;;;;;27.97;13.97;;;;;;;3.13;78.95;96826.66;5088206;28;20498;-67
2020/12/25 09:06:12;;;;;;;23.00;13.20;;;;;;;3.13;78.88;96842.19;5088945;28;20511;-68
2020/12/25 09:08:38;;;;;;;22.20;13.37;;;;;;;3.25;78.27;96837.84;5066735;28;20228;-67
2020/12/25 09:11:15;;;;;;;23.60;12.87;;;;;;;3.95;82.28;96843.75;5099342;28;20691;-69
2020/12/25 09:13:41;;;;;;;29.63;16.00;;;;;;;5.15;80.68;96842.88;5101842;28;20289;-68
2020/12/25 09:16:07;;;;;;;23.40;11.80;;;;;;;6.07;78.11;96853.44;5100573;28;20419;-69
2020/12/25 09:18:35;;;;;;;18.80;13.37;;;;;;;5.87;70.39;96855.97;5098865;28;20982;-69
2020/12/25 09:21:00;;;;;;;13.83;10.00;;;;;;;6.12;71.86;96862.50;5095444;28;20461;-68
2020/12/25 09:23:27;;;;;;;10.97;8.20;;;;;;;6.79;67.80;96861.94;5094311;28;20418;-68
2020/12/25 09:25:53;;;;;;;9.13;6.90;;;;;;;6.21;67.34;96866.09;5075336;28;20174;-68
2020/12/25 09:28:18;;;;;;;10.70;8.07;;;;;;;6.24;67.85;96865.81;5077958;28;20446;-68
2020/12/25 09:30:44;;;;;;;15.70;8.03;;;;;;;5.53;68.05;96872.63;5056420;28;20169;-68
2020/12/25 09:33:10;;;;;;;11.67;8.53;;;;;;;5.87;65.42;96879.38;5105566;28;20180;-69
2020/12/25 09:35:36;;;;;;;10.63;6.97;;;;;;;7.46;66.03;96874.22;5074612;28;20261;-68
2020/12/25 09:38:01;;;;;;;9.90;7.63;;;;;;;5.77;65.66;96888.91;5103103;28;20454;-68
2020/12/25 09:40:27;;;;;;;11.70;8.60;;;;;;;5.39;66.98;96883.34;5085534;28;20223;-68
2020/12/25 09:42:53;;;;;;;11.47;8.10;;;;;;;4.61;70.18;96896.59;5102761;28;20271;-68
2020/12/25 09:45:19;;;;;;;11.57;9.07;;;;;;;4.63;70.86;96892.09;5087394;28;20173;-67
2020/12/25 09:47:44;;;;;;;12.27;9.30;;;;;;;3.91;73.35;96885.59;5094647;28;20189;-67
2020/12/25 09:50:10;;;;;;;13.23;10.00;;;;;;;3.14;76.04;96882.69;5108652;28;20200;-67
2020/12/25 09:52:36;;;;;;;20.63;10.30;;;;;;;3.20;76.80;96889.19;5086635;28;20192;-66
2020/12/25 09:55:03;;;;;;;14.47;9.80;;;;;;;3.26;77.09;96893.88;5101543;28;20178;-67
2020/12/25 09:57:29;;;;;;;16.10;11.23;;;;;;;3.56;76.57;96902.91;5095200;28;20570;-67
2020/12/25 09:59:55;;;;;;;22.10;12.10;;;;;;;3.41;77.44;96906.63;5098480;28;20431;-67
2020/12/25 10:02:21;;;;;;;22.60;12.43;;;;;;;3.56;77.09;96895.13;5100030;28;20181;-66
2020/12/25 10:04:47;;;;;;;16.40;11.97;;;;;;;3.46;76.46;96895.00;5112534;28;20476;-67
2020/12/25 10:07:13;;;;;;;17.80;11.43;;;;;;;3.57;76.43;96890.75;5108152;28;20424;-67
2020/12/25 10:09:39;;;;;;;16.57;11.47;;;;;;;3.42;76.53;96893.56;5088314;28;20565;-68
2020/12/25 10:12:05;;;;;;;16.00;11.47;;;;;;;3.75;76.13;96901.50;5096624;28;20185;-67
2020/12/25 10:14:31;;;;;;;20.47;11.23;;;;;;;3.56;77.03;96897.72;5095616;28;20419;-67
2020/12/25 10:16:56;;;;;;;16.70;11.10;;;;;;;3.57;77.13;96891.59;5097305;28;20422;-67
2020/12/25 10:19:22;;;;;;;18.50;12.40;;;;;;;3.46;77.96;96889.00;5097967;28;20261;-68
2020/12/25 10:21:51;;;;;;;19.47;12.00;;;;;;;3.47;77.05;96890.63;5100414;28;20177;-68
2020/12/25 10:24:17;;;;;;;21.87;11.07;;;;;;;3.76;76.25;96883.25;5100944;28;20178;-68
2020/12/25 10:26:49;;;;;;;16.40;11.00;;;;;;;3.76;75.77;96885.00;5095991;28;20435;-68
2020/12/25 10:29:15;;;;;;;12.77;10.43;;;;;;;3.51;76.59;96890.31;5099950;28;20446;-68
2020/12/25 10:31:40;;;;;;;15.80;10.80;;;;;;;3.94;75.33;96890.53;5101325;28;20780;-67
2020/12/25 10:34:06;;;;;;;15.43;10.07;;;;;;;3.51;76.67;96892.06;5109091;28;20543;-67
2020/12/25 10:36:32;;;;;;;12.43;9.23;;;;;;;3.62;75.99;96893.84;5094418;28;20207;-68
2020/12/25 10:38:57;;;;;;;13.50;9.63;;;;;;;3.72;75.58;96893.97;5089035;28;20210;-71
2020/12/25 10:41:30;;;;;;;14.67;10.43;;;;;;;3.50;76.67;96901.59;5098561;28;20181;-68
2020/12/25 10:44:00;;;;;;;14.57;11.47;;;;;;;3.36;76.65;96894.84;5105587;28;20182;-68
2020/12/25 10:46:26;;;;;;;15.80;10.10;;;;;;;3.61;76.67;96892.19;5075910;28;20428;-68
2020/12/25 10:48:52;;;;;;;17.03;10.27;;;;;;;3.46;77.44;96892.41;5097263;28;20782;-68
2020/12/25 10:51:19;;;;;;;17.77;11.07;;;;;;;2.98;78.00;96885.56;5093460;28;20430;-68
2020/12/25 10:53:45;;;;;;;18.50;10.03;;;;;;;3.20;77.18;96890.00;5096860;28;20268;-68
2020/12/25 10:56:24;;;;;;;16.30;10.33;;;;;;;3.26;77.93;96893.88;5077186;28;20486;-68
2020/12/25 10:58:51;;;;;;;16.10;11.13;;;;;;;3.28;77.74;96891.16;5092853;28;20458;-69
2020/12/25 11:01:24;;;;;;;13.73;9.40;;;;;;;3.30;76.69;96887.56;5073557;28;20473;-69
2020/12/25 11:03:50;;;;;;;15.37;9.80;;;;;;;3.34;76.23;96890.72;5100047;28;20422;-68
2020/12/25 11:06:17;;;;;;;12.03;8.60;;;;;;;3.32;76.61;96892.59;5082062;28;20937;-68
2020/12/25 11:08:48;;;;;;;13.80;9.23;;;;;;;3.36;76.00;96894.84;5093421;28;20522;-68
2020/12/25 11:11:24;;;;;;;14.87;9.13;;;;;;;3.29;75.90;96898.84;5068278;28;20419;-68
2020/12/25 11:13:50;;;;;;;13.43;8.87;;;;;;;3.45;74.85;96898.53;5074557;28;20561;-70
2020/12/25 11:16:26;;;;;;;13.93;8.70;;;;;;;3.61;74.28;96894.78;5093554;28;20890;-70
2020/12/25 11:18:56;;;;;;;14.17;9.10;;;;;;;3.31;74.81;96899.56;5092254;28;20213;-70
2020/12/25 11:21:27;;;;;;;11.77;8.13;;;;;;;3.72;74.02;96904.34;5097715;28;20416;-69
2020/12/25 11:23:53;;;;;;;14.60;8.03;;;;;;;3.81;73.97;96909.63;5103207;28;20430;-68
2020/12/25 11:26:20;;;;;;;14.13;8.87;;;;;;;3.70;73.49;96899.25;5094894;28;20413;-68
2020/12/25 11:28:46;;;;;;;12.30;7.70;;;;;;;3.53;74.24;96906.53;5096394;28;20423;-70
2020/12/25 11:31:12;;;;;;;9.77;8.00;;;;;;;3.70;73.30;96896.66;5092553;28;20557;-69
2020/12/25 11:33:38;;;;;;;11.70;7.13;;;;;;;3.02;75.41;96902.53;5100648;28;20248;-67
2020/12/25 11:36:04;;;;;;;15.10;8.40;;;;;;;3.25;75.21;96894.00;5077896;28;20423;-68
2020/12/25 11:38:30;;;;;;;14.07;7.87;;;;;;;3.73;73.48;96896.44;5100610;28;20463;-68